createdAt,value
2023-04-17T00:01:41.589Z,4.45
2023-04-17T00:04:13.251Z,4.45
2023-04-17T00:06:43.694Z,4.72
2023-04-17T00:09:11.818Z,4.82
2023-04-17T00:11:39.150Z,4.80
2023-04-17T00:14:06.295Z,5.00
2023-04-17T00:16:33.645Z,4.05
2023-04-17T00:19:00.693Z,4.82
2023-04-17T00:21:30.064Z,5.15
2023-04-17T00:23:57.056Z,4.87
2023-04-17T00:26:24.417Z,5.07
2023-04-17T00:28:52.054Z,5.68
2023-04-17T00:31:19.221Z,5.22
2023-04-17T00:33:46.759Z,5.32
2023-04-17T00:36:15.591Z,5.28
2023-04-17T00:38:42.835Z,5.05
2023-04-17T00:41:09.922Z,5.80
2023-04-17T00:43:36.980Z,5.25
2023-04-17T00:46:05.102Z,5.50
2023-04-17T00:48:33.349Z,5.55
2023-04-17T00:51:03.544Z,5.15
2023-04-17T00:53:33.996Z,5.62
2023-04-17T00:56:01.716Z,6.18
2023-04-17T00:58:28.731Z,5.18
2023-04-17T01:00:56.063Z,5.22
2023-04-17T01:03:23.342Z,5.85
2023-04-17T01:05:52.099Z,5.97
2023-04-17T01:08:19.640Z,5.75
2023-04-17T01:10:46.594Z,5.28
2023-04-17T01:13:13.512Z,5.47
2023-04-17T01:15:40.463Z,5.72
2023-04-17T01:18:07.553Z,6.05
2023-04-17T01:20:34.908Z,5.53
2023-04-17T01:23:02.221Z,5.68
2023-04-17T01:25:29.179Z,5.30
2023-04-17T01:27:57.072Z,5.65
2023-04-17T01:30:24.436Z,5.30
2023-04-17T01:32:54.395Z,5.40
2023-04-17T01:35:21.359Z,5.78
2023-04-17T01:37:48.364Z,5.55
2023-04-17T01:40:15.567Z,5.12
2023-04-17T01:42:42.448Z,5.68
2023-04-17T01:45:09.736Z,5.78
2023-04-17T01:47:36.709Z,5.55
2023-04-17T01:50:04.327Z,5.55
2023-04-17T01:52:31.432Z,6.10
2023-04-17T01:54:58.328Z,5.87
2023-04-17T01:57:25.210Z,5.85
2023-04-17T01:59:52.102Z,5.43
2023-04-17T02:02:19.201Z,6.07
2023-04-17T02:04:46.318Z,5.25
2023-04-17T02:07:13.231Z,5.68
2023-04-17T02:09:40.107Z,5.50
2023-04-17T02:12:07.294Z,5.32
2023-04-17T02:14:34.176Z,5.57
2023-04-17T02:17:01.749Z,4.97
2023-04-17T02:19:28.674Z,4.90
2023-04-17T02:21:55.647Z,5.07
2023-04-17T02:24:22.503Z,5.32
2023-04-17T02:26:49.810Z,5.22
2023-04-17T02:29:16.667Z,5.57
2023-04-17T02:31:43.576Z,5.40
2023-04-17T02:34:10.519Z,5.70
2023-04-17T02:36:37.407Z,5.15
2023-04-17T02:39:04.354Z,5.03
2023-04-17T02:41:31.295Z,5.43
2023-04-17T02:44:00.524Z,4.82
2023-04-17T02:46:27.501Z,4.78
2023-04-17T02:48:54.737Z,5.37
2023-04-17T02:51:21.617Z,4.95
2023-04-17T02:53:49.358Z,5.03
2023-04-17T02:56:16.295Z,5.75
2023-04-17T02:58:45.190Z,4.95
2023-04-17T03:01:12.133Z,4.85
2023-04-17T03:03:42.298Z,4.90
2023-04-17T03:06:10.145Z,4.72
2023-04-17T03:08:38.880Z,5.30
2023-04-17T03:11:06.515Z,5.75
2023-04-17T03:13:36.628Z,4.70
2023-04-17T03:16:04.881Z,5.10
2023-04-17T03:18:32.493Z,4.70
2023-04-17T03:20:59.406Z,5.03
2023-04-17T03:23:26.273Z,4.72
2023-04-17T03:25:53.288Z,4.85
2023-04-17T03:28:22.142Z,5.22
2023-04-17T03:30:49.586Z,5.12
2023-04-17T03:33:16.862Z,4.80
2023-04-17T03:35:44.559Z,4.90
2023-04-17T03:38:11.531Z,5.03
2023-04-17T03:40:38.474Z,4.70
2023-04-17T03:43:05.444Z,5.05
2023-04-17T03:45:32.424Z,4.80
2023-04-17T03:47:59.492Z,4.18
2023-04-17T03:50:26.495Z,5.12
2023-04-17T03:52:53.421Z,4.87
2023-04-17T03:55:20.316Z,5.00
2023-04-17T03:57:48.638Z,5.45
2023-04-17T04:00:16.472Z,4.82
2023-04-17T04:02:43.577Z,5.18
2023-04-17T04:05:10.638Z,5.43
2023-04-17T04:07:37.588Z,5.03
2023-04-17T04:10:04.734Z,5.57
2023-04-17T04:12:31.598Z,5.70
2023-04-17T04:14:58.472Z,6.00
2023-04-17T04:17:25.780Z,5.30
2023-04-17T04:19:52.731Z,5.43
2023-04-17T04:22:21.417Z,5.37
2023-04-17T04:24:48.425Z,5.22
2023-04-17T04:27:18.114Z,5.60
2023-04-17T04:29:49.008Z,5.65
2023-04-17T04:32:16.832Z,5.32
2023-04-17T04:34:44.811Z,5.70
2023-04-17T04:37:15.940Z,5.18
2023-04-17T04:39:43.448Z,5.07
2023-04-17T04:42:10.524Z,5.20
2023-04-17T04:44:37.743Z,5.15
2023-04-17T04:47:04.795Z,5.10
2023-04-17T04:49:31.761Z,5.43
2023-04-17T04:51:58.689Z,6.05
2023-04-17T04:54:25.696Z,5.20
2023-04-17T04:56:52.552Z,5.22
2023-04-17T04:59:19.476Z,5.68
2023-04-17T05:01:46.585Z,5.28
2023-04-17T05:04:13.570Z,5.40
2023-04-17T05:06:41.144Z,5.50
2023-04-17T05:09:08.011Z,5.55
2023-04-17T05:11:34.910Z,5.62
2023-04-17T05:14:01.807Z,5.18
2023-04-17T05:16:28.756Z,5.72
2023-04-17T05:18:55.719Z,5.90
2023-04-17T05:21:22.682Z,5.80
2023-04-17T05:23:49.567Z,5.05
2023-04-17T05:26:16.536Z,5.43
2023-04-17T05:28:45.281Z,5.70
2023-04-17T05:31:12.287Z,5.15
2023-04-17T05:33:39.148Z,4.93
2023-04-17T05:36:06.777Z,5.35
2023-04-17T05:38:33.830Z,5.45
2023-04-17T05:41:01.951Z,5.32
2023-04-17T05:43:28.813Z,5.43
2023-04-17T05:45:55.771Z,5.75
2023-04-17T05:48:22.778Z,5.65
2023-04-17T05:50:49.712Z,5.05
2023-04-17T05:53:16.922Z,5.45
2023-04-17T05:55:43.863Z,5.45
2023-04-17T05:58:23.277Z,6.15
2023-04-17T06:00:51.936Z,4.70
2023-04-17T06:03:19.516Z,4.78
2023-04-17T06:05:47.365Z,5.12
2023-04-17T06:08:14.374Z,4.78
2023-04-17T06:10:41.293Z,4.32
2023-04-17T06:13:08.317Z,4.35
2023-04-17T06:15:35.226Z,5.28
2023-04-17T06:18:04.170Z,5.10
2023-04-17T06:20:31.137Z,4.62
2023-04-17T06:22:58.011Z,4.90
2023-04-17T06:25:24.920Z,5.18
2023-04-17T06:27:54.881Z,5.30
2023-04-17T06:30:21.751Z,5.00
2023-04-17T06:32:48.643Z,5.22
2023-04-17T06:35:15.718Z,4.97
2023-04-17T06:37:42.639Z,5.05
2023-04-17T06:40:09.988Z,5.05
2023-04-17T06:42:36.869Z,4.28
2023-04-17T06:45:04.289Z,4.57
2023-04-17T06:47:31.450Z,4.85
2023-04-17T06:50:00.013Z,5.43
2023-04-17T06:52:27.200Z,4.82
2023-04-17T06:54:54.630Z,4.55
2023-04-17T06:57:22.342Z,4.60
2023-04-17T06:59:51.232Z,5.20
2023-04-17T07:02:18.283Z,4.30
2023-04-17T07:04:45.357Z,5.10
2023-04-17T07:07:12.294Z,4.20
2023-04-17T07:09:39.214Z,4.18
2023-04-17T07:12:06.113Z,4.70
2023-04-17T07:14:33.712Z,4.05
2023-04-17T07:17:00.885Z,4.12
2023-04-17T07:19:27.771Z,3.85
2023-04-17T07:21:54.640Z,4.15
2023-04-17T07:24:21.519Z,3.67
2023-04-17T07:26:49.777Z,4.30
2023-04-17T07:29:16.720Z,4.47
2023-04-17T07:31:44.198Z,4.35
2023-04-17T07:34:11.123Z,4.22
2023-04-17T07:36:37.983Z,4.30
2023-04-17T07:39:06.594Z,3.70
2023-04-17T07:41:33.478Z,4.20
2023-04-17T07:44:03.445Z,4.03
2023-04-17T07:46:30.444Z,4.75
2023-04-17T07:48:57.395Z,4.68
2023-04-17T07:51:24.293Z,4.55
2023-04-17T07:53:51.221Z,4.57
2023-04-17T07:56:18.093Z,4.32
2023-04-17T07:58:46.519Z,4.37
2023-04-17T08:01:13.817Z,4.35
2023-04-17T08:03:41.990Z,4.20
2023-04-17T08:06:09.098Z,4.45
2023-04-17T08:08:36.469Z,4.03
2023-04-17T08:11:04.033Z,4.30
2023-04-17T08:13:34.281Z,3.80
2023-04-17T08:16:01.671Z,4.10
2023-04-17T08:18:29.569Z,4.47
2023-04-17T08:20:58.888Z,4.05
2023-04-17T08:23:26.114Z,4.30
2023-04-17T08:25:53.011Z,3.78
2023-04-17T08:28:19.885Z,4.28
2023-04-17T08:30:46.769Z,4.00
2023-04-17T08:33:14.001Z,4.10
2023-04-17T08:35:41.062Z,4.32
2023-04-17T08:38:10.474Z,4.30
2023-04-17T08:40:40.644Z,4.22
2023-04-17T08:43:13.028Z,3.95
2023-04-17T08:45:40.837Z,4.30
2023-04-17T08:48:07.797Z,4.80
2023-04-17T08:50:34.972Z,4.10
2023-04-17T08:53:01.902Z,4.28
2023-04-17T08:55:32.756Z,4.50
2023-04-17T08:58:01.423Z,4.47
2023-04-17T09:00:29.654Z,4.20
2023-04-17T09:02:57.812Z,4.28
2023-04-17T09:05:26.766Z,3.97
2023-04-17T09:08:17.610Z,4.10
2023-04-17T09:10:53.273Z,4.03
2023-04-17T09:13:24.447Z,4.07
2023-04-17T09:16:16.067Z,4.47
2023-04-17T09:18:43.590Z,3.35
2023-04-17T09:21:10.481Z,3.95
2023-04-17T09:23:50.602Z,4.15
2023-04-17T09:26:31.564Z,2.95
2023-04-17T09:29:12.396Z,3.53
2023-04-17T09:31:41.461Z,5.05
2023-04-17T09:34:13.308Z,3.83
2023-04-17T09:36:42.247Z,3.17
2023-04-17T09:39:24.377Z,3.45
2023-04-17T09:42:06.437Z,3.20
2023-04-17T09:44:36.962Z,2.70
2023-04-17T09:47:05.294Z,2.90
2023-04-17T09:49:40.609Z,3.40
2023-04-17T09:52:07.519Z,2.90
2023-04-17T09:54:38.385Z,3.20
2023-04-17T09:57:09.486Z,3.45
2023-04-17T09:59:48.163Z,3.62
2023-04-17T10:02:19.097Z,3.45
2023-04-17T10:04:47.139Z,3.25
2023-04-17T10:07:14.314Z,3.20
2023-04-17T10:09:42.206Z,3.70
2023-04-17T10:12:14.934Z,3.60
2023-04-17T10:14:46.730Z,3.75
2023-04-17T10:17:36.537Z,3.53
2023-04-17T10:20:15.642Z,3.70
2023-04-17T10:22:43.366Z,3.20
2023-04-17T10:25:13.133Z,3.12
2023-04-17T10:27:43.287Z,3.47
2023-04-17T10:30:14.019Z,3.35
2023-04-17T10:32:43.537Z,3.50
2023-04-17T10:35:16.218Z,3.67
2023-04-17T10:37:51.859Z,3.50
2023-04-17T10:40:26.541Z,2.00
2023-04-17T10:43:12.470Z,3.83
2023-04-17T10:45:54.761Z,4.22
2023-04-17T10:48:27.376Z,3.72
2023-04-17T10:50:57.855Z,3.40
2023-04-17T10:53:38.319Z,3.47
2023-04-17T10:56:05.540Z,3.47
2023-04-17T10:58:32.542Z,4.07
2023-04-17T11:01:03.712Z,4.10
2023-04-17T11:03:31.587Z,3.92
2023-04-17T11:05:59.480Z,3.75
2023-04-17T11:08:26.350Z,3.78
2023-04-17T11:10:54.444Z,4.28
2023-04-17T11:13:22.129Z,4.50
2023-04-17T11:15:50.901Z,4.22
2023-04-17T11:18:18.579Z,3.92
2023-04-17T11:20:46.318Z,4.05
2023-04-17T11:23:13.923Z,3.58
2023-04-17T11:25:41.423Z,3.62
2023-04-17T11:28:08.309Z,4.75
2023-04-17T11:30:37.587Z,3.78
2023-04-17T11:33:05.918Z,3.75
2023-04-17T11:35:37.542Z,4.85
2023-04-17T11:38:18.010Z,3.65
2023-04-17T11:40:52.543Z,3.37
2023-04-17T11:43:21.451Z,3.80
2023-04-17T11:45:51.051Z,4.22
2023-04-17T11:48:23.183Z,4.43
2023-04-17T11:50:50.203Z,4.35
2023-04-17T11:53:18.338Z,3.12
2023-04-17T11:55:46.021Z,4.00
2023-04-17T11:58:14.367Z,3.55
2023-04-17T12:00:41.766Z,4.30
2023-04-17T12:03:34.831Z,3.90
2023-04-17T12:06:04.223Z,4.10
2023-04-17T12:08:31.664Z,4.03
2023-04-17T12:10:58.739Z,4.12
2023-04-17T12:13:26.439Z,4.12
2023-04-17T12:15:53.927Z,4.87
2023-04-17T12:18:20.870Z,4.70
2023-04-17T12:20:47.965Z,4.18
2023-04-17T12:23:14.853Z,4.20
2023-04-17T12:25:41.706Z,4.55
2023-04-17T12:28:08.626Z,4.32
2023-04-17T12:30:36.315Z,4.30
2023-04-17T12:33:03.336Z,3.78
2023-04-17T12:35:30.429Z,3.90
2023-04-17T12:37:57.396Z,3.78
2023-04-17T12:40:25.190Z,3.53
2023-04-17T12:42:52.129Z,3.60
2023-04-17T12:45:19.801Z,3.40
2023-04-17T12:47:46.776Z,3.30
2023-04-17T12:50:13.842Z,3.08
2023-04-17T12:52:41.399Z,3.80
2023-04-17T12:55:09.385Z,3.33
2023-04-17T12:57:36.869Z,2.87
2023-04-17T13:00:06.682Z,2.75
2023-04-17T13:02:33.841Z,2.42
2023-04-17T13:05:01.246Z,2.50
2023-04-17T13:07:28.978Z,3.05
2023-04-17T13:09:55.890Z,3.05
2023-04-17T13:12:23.276Z,3.10
2023-04-17T13:14:50.222Z,2.50
2023-04-17T13:17:17.669Z,2.83
2023-04-17T13:19:44.929Z,2.75
2023-04-17T13:22:12.396Z,3.50
2023-04-17T13:24:39.319Z,3.42
2023-04-17T13:27:06.240Z,2.58
2023-04-17T13:29:33.258Z,2.90
2023-04-17T13:32:00.175Z,2.92
2023-04-17T13:34:27.204Z,2.70
2023-04-17T13:36:55.440Z,2.70
2023-04-17T13:39:22.334Z,3.30
2023-04-17T13:41:49.356Z,2.92
2023-04-17T13:44:17.658Z,2.70
2023-04-17T13:46:44.886Z,2.67
2023-04-17T13:49:12.083Z,2.08
2023-04-17T13:51:39.238Z,2.35
2023-04-17T13:54:06.827Z,3.08
2023-04-17T13:56:33.728Z,2.58
2023-04-17T13:59:00.642Z,1.85
2023-04-17T14:01:27.609Z,2.30
2023-04-17T14:03:54.836Z,1.52
2023-04-17T14:06:21.880Z,2.30
2023-04-17T14:08:48.827Z,2.70
2023-04-17T14:11:17.442Z,1.90
2023-04-17T14:13:44.365Z,1.95
2023-04-17T14:16:11.327Z,2.37
2023-04-17T14:18:48.943Z,2.00
2023-04-17T14:21:25.427Z,2.50
2023-04-17T14:24:01.546Z,2.55
2023-04-17T14:27:22.189Z,2.62
2023-04-17T14:29:49.053Z,2.35
2023-04-17T14:32:15.912Z,2.20
2023-04-17T14:34:42.819Z,2.50
2023-04-17T14:37:09.712Z,2.70
2023-04-17T14:39:36.599Z,3.30
2023-04-17T14:42:03.599Z,2.90
2023-04-17T14:44:30.559Z,3.03
2023-04-17T14:46:57.567Z,3.03
2023-04-17T14:49:24.522Z,4.87
2023-04-17T14:51:51.381Z,3.50
2023-04-17T14:54:18.238Z,4.60
2023-04-17T14:56:45.066Z,4.70
2023-04-17T14:59:12.158Z,3.70
2023-04-17T15:01:39.301Z,5.12
2023-04-17T15:04:06.801Z,4.00
2023-04-17T15:06:33.884Z,2.50
2023-04-17T15:09:00.765Z,2.90
2023-04-17T15:11:27.656Z,2.65
2023-04-17T15:13:54.522Z,2.97
2023-04-17T15:16:21.499Z,2.90
2023-04-17T15:18:48.553Z,3.08
2023-04-17T15:21:18.317Z,3.53
2023-04-17T15:23:45.290Z,3.20
2023-04-17T15:26:12.976Z,3.22
2023-04-17T15:28:40.358Z,3.87
2023-04-17T15:31:08.168Z,4.00
2023-04-17T15:33:35.019Z,3.47
2023-04-17T15:36:01.978Z,4.07
2023-04-17T15:38:28.847Z,3.70
2023-04-17T15:40:55.976Z,3.67
2023-04-17T15:43:22.947Z,3.50
2023-04-17T15:45:49.862Z,3.95
2023-04-17T15:48:16.775Z,3.72
2023-04-17T15:50:43.789Z,3.58
2023-04-17T15:53:10.678Z,3.60
2023-04-17T15:55:38.620Z,3.28
2023-04-17T15:58:05.663Z,3.05
2023-04-17T16:00:34.169Z,3.50
2023-04-17T16:03:01.324Z,3.40
2023-04-17T16:05:30.016Z,3.42
2023-04-17T16:07:57.042Z,3.50
2023-04-17T16:10:23.934Z,3.90
2023-04-17T16:12:50.813Z,4.55
2023-04-17T16:15:18.153Z,4.10
2023-04-17T16:17:45.991Z,3.28
2023-04-17T16:20:13.333Z,3.70
2023-04-17T16:22:40.636Z,3.30
2023-04-17T16:25:07.992Z,4.07
2023-04-17T16:27:34.947Z,4.72
2023-04-17T16:30:03.142Z,4.78
2023-04-17T16:32:31.897Z,5.40
2023-04-17T16:34:59.036Z,6.70
2023-04-17T16:37:26.235Z,6.07
2023-04-17T16:39:53.064Z,7.03
2023-04-17T16:42:19.915Z,6.85
2023-04-17T16:44:47.389Z,7.85
2023-04-17T16:47:14.738Z,6.95
2023-04-17T16:49:42.553Z,7.20
2023-04-17T16:52:09.587Z,7.45
2023-04-17T16:54:36.458Z,8.27
2023-04-17T16:57:03.563Z,8.23
2023-04-17T16:59:30.415Z,7.70
2023-04-17T17:01:58.250Z,7.43
2023-04-17T17:04:26.087Z,7.78
2023-04-17T17:06:52.990Z,7.72
2023-04-17T17:09:20.556Z,7.47
2023-04-17T17:11:48.038Z,7.65
2023-04-17T17:14:16.235Z,7.70
2023-04-17T17:16:43.236Z,7.57
2023-04-17T17:19:10.512Z,7.10
2023-04-17T17:21:37.761Z,4.12
2023-04-17T17:24:04.979Z,5.10
2023-04-17T17:26:31.868Z,4.28
2023-04-17T17:28:58.790Z,7.20
2023-04-17T17:31:25.746Z,6.90
2023-04-17T17:33:54.215Z,7.68
2023-04-17T17:36:22.040Z,6.62
2023-04-17T17:38:55.874Z,6.50
2023-04-17T17:41:26.521Z,6.28
2023-04-17T17:43:56.237Z,7.35
2023-04-17T17:46:24.674Z,4.82
2023-04-17T17:48:51.598Z,5.95
2023-04-17T17:51:18.495Z,6.03
2023-04-17T17:53:45.442Z,6.35
2023-04-17T17:56:12.284Z,6.07
2023-04-17T17:58:39.142Z,6.05
2023-04-17T18:01:07.091Z,5.43
2023-04-17T18:03:35.478Z,5.40
2023-04-17T18:06:02.466Z,3.67
2023-04-17T18:08:29.385Z,3.60
2023-04-17T18:10:56.230Z,3.83
2023-04-17T18:13:23.134Z,4.45
2023-04-17T18:15:50.100Z,4.28
2023-04-17T18:18:16.975Z,3.90
2023-04-17T18:20:43.833Z,4.10
2023-04-17T18:23:10.768Z,4.30
2023-04-17T18:25:39.276Z,3.90
2023-04-17T18:28:06.682Z,4.80
2023-04-17T18:30:33.685Z,5.80
2023-04-17T18:33:00.744Z,5.50
2023-04-17T18:35:27.742Z,5.75
2023-04-17T18:37:54.614Z,5.90
2023-04-17T18:40:21.459Z,6.78
2023-04-17T18:42:48.314Z,7.85
2023-04-17T18:45:16.176Z,8.18
2023-04-17T18:47:43.260Z,8.15
2023-04-17T18:50:11.324Z,8.48
2023-04-17T18:52:43.555Z,8.35
2023-04-17T18:55:14.229Z,9.80
2023-04-17T18:57:41.223Z,11.20
2023-04-17T19:00:08.805Z,10.77
2023-04-17T19:02:37.241Z,8.80
2023-04-17T19:05:04.720Z,8.75
2023-04-17T19:07:31.608Z,8.80
2023-04-17T19:09:58.443Z,8.50
2023-04-17T19:12:25.261Z,9.45
2023-04-17T19:14:52.192Z,7.93
2023-04-17T19:17:19.087Z,7.87
2023-04-17T19:19:46.044Z,8.07
2023-04-17T19:22:14.686Z,7.95
2023-04-17T19:24:42.694Z,8.13
2023-04-17T19:27:09.892Z,7.22
2023-04-17T19:29:37.054Z,8.65
2023-04-17T19:32:04.223Z,7.97
2023-04-17T19:34:31.130Z,8.45
2023-04-17T19:36:57.993Z,7.65
2023-04-17T19:39:27.052Z,8.10
2023-04-17T19:41:53.900Z,7.68
2023-04-17T19:44:20.810Z,8.45
2023-04-17T19:46:47.698Z,8.00
2023-04-17T19:49:15.815Z,7.85
2023-04-17T19:51:42.687Z,8.32
2023-04-17T19:54:12.135Z,7.90
2023-04-17T19:56:39.604Z,8.23
2023-04-17T19:59:06.774Z,7.72
2023-04-17T20:01:33.758Z,8.23
2023-04-17T20:04:00.830Z,8.02
2023-04-17T20:06:27.832Z,7.45
2023-04-17T20:08:56.608Z,7.75
2023-04-17T20:11:23.861Z,7.85
2023-04-17T20:13:51.850Z,8.85
2023-04-17T20:16:18.958Z,7.72
2023-04-17T20:18:45.956Z,7.93
2023-04-17T20:21:13.514Z,7.93
2023-04-17T20:23:41.205Z,7.55
2023-04-17T20:26:08.388Z,8.48
2023-04-17T20:28:35.376Z,7.68
2023-04-17T20:31:03.947Z,7.72
2023-04-17T20:33:31.114Z,8.38
2023-04-17T20:35:58.412Z,8.00
2023-04-17T20:38:25.884Z,7.87
2023-04-17T20:40:52.799Z,7.82
2023-04-17T20:43:19.712Z,7.80
2023-04-17T20:45:48.478Z,7.87
2023-04-17T20:48:15.912Z,7.68
2023-04-17T20:50:42.867Z,8.20
2023-04-17T20:53:09.756Z,8.05
2023-04-17T20:55:38.084Z,7.57
2023-04-17T20:58:04.973Z,7.45
2023-04-17T21:00:32.600Z,7.32
2023-04-17T21:02:59.539Z,7.70
2023-04-17T21:05:27.312Z,7.57
2023-04-17T21:07:54.670Z,7.57
2023-04-17T21:10:21.650Z,8.43
2023-04-17T21:12:48.574Z,7.78
2023-04-17T21:15:15.470Z,7.55
2023-04-17T21:17:46.897Z,7.37
2023-04-17T21:20:15.008Z,7.65
2023-04-17T21:22:41.993Z,7.18
2023-04-17T21:25:09.192Z,7.78
2023-04-17T21:27:36.301Z,8.15
2023-04-17T21:30:04.095Z,7.80
2023-04-17T21:32:31.042Z,7.97
2023-04-17T21:34:58.069Z,7.62
2023-04-17T21:37:25.110Z,7.45
2023-04-17T21:39:51.937Z,7.20
2023-04-17T21:42:19.068Z,6.97
2023-04-17T21:44:45.918Z,8.20
2023-04-17T21:47:14.656Z,7.78
2023-04-17T21:49:41.503Z,6.55
2023-04-17T21:52:08.377Z,6.97
2023-04-17T21:54:35.438Z,6.57
2023-04-17T21:57:02.311Z,6.82
2023-04-17T21:59:29.229Z,6.60
2023-04-17T22:01:56.146Z,7.03
2023-04-17T22:04:23.089Z,5.90
2023-04-17T22:06:52.200Z,6.43
2023-04-17T22:09:20.102Z,5.97
2023-04-17T22:11:47.749Z,5.43
2023-04-17T22:14:16.216Z,5.97
2023-04-17T22:16:43.561Z,5.57
2023-04-17T22:19:10.470Z,5.72
2023-04-17T22:21:37.362Z,5.40
2023-04-17T22:24:04.422Z,5.15
2023-04-17T22:26:31.727Z,4.55
2023-04-17T22:28:58.614Z,4.15
2023-04-17T22:31:25.547Z,4.07
2023-04-17T22:33:52.500Z,4.60
2023-04-17T22:36:19.394Z,4.43
2023-04-17T22:38:46.298Z,4.07
2023-04-17T22:41:13.180Z,3.87
2023-04-17T22:43:39.997Z,4.07
2023-04-17T22:46:06.839Z,3.60
2023-04-17T22:48:35.117Z,4.10
2023-04-17T22:51:02.493Z,4.03
2023-04-17T22:53:29.734Z,4.00
2023-04-17T22:56:01.490Z,4.00
2023-04-17T22:58:28.455Z,3.87
2023-04-17T23:00:55.319Z,4.32
2023-04-17T23:03:22.306Z,4.62
2023-04-17T23:05:49.248Z,4.45
2023-04-17T23:08:16.187Z,4.40
2023-04-17T23:10:43.175Z,4.25
2023-04-17T23:13:10.077Z,3.90
2023-04-17T23:15:37.027Z,4.20
2023-04-17T23:18:04.073Z,4.45
2023-04-17T23:20:31.037Z,3.58
2023-04-17T23:22:57.951Z,3.90
2023-04-17T23:25:24.884Z,3.72
2023-04-17T23:27:51.764Z,3.37
2023-04-17T23:30:18.774Z,3.50
2023-04-17T23:32:46.081Z,3.95
2023-04-17T23:35:13.189Z,3.65
2023-04-17T23:37:40.078Z,3.80
2023-04-17T23:40:07.934Z,3.60
2023-04-17T23:42:34.852Z,4.22
2023-04-17T23:45:01.742Z,3.30
2023-04-17T23:47:28.617Z,3.60
2023-04-17T23:49:55.554Z,3.47
2023-04-17T23:52:22.441Z,3.58
2023-04-17T23:54:49.390Z,3.45
2023-04-17T23:59:44.223Z,3.47
